»·PEaware :: UPS3122 KDEN-KABQ

UPS3122 :: KDEN-KABQ

FLIGHT INFORMATION

Flight Status: Arrived
Operator:
United Parcel Service
More flights by this operator :: More flights under this callsign
Pilot: Jesse M. (22378)
Aircraft: AIRBUS A300B4-600
(A306)
More flights by this aircraft type
Origin: KDEN Denver Intl
United States
Destination: KABQ Albuquerque Intl Sunport
United States
More flights between these airports :: More routes between these airports
Route: +SUDDZ1 SUDDZ DATME SNDIA3
File this flight plan on PilotEdge
Remarks:
Altitude:
(Current/Filed)
32,000ft
Speed:
(Current/Filed)
450kts
Departed: 10-Sep-20 04:42 PM
Arrived: 10-Sep-20 05:39 PM
Distance/Time
Traveled:
304nm/0:57
Distance/Time
To Go:
Arrived

Flight Plot

Page will automatically refresh every two minutes.

Flight plan parsing failed; only flown route is shown


Map Options




Map Legend


Flown Route
Filed Route
Departure Airport
Arrival Airport
Navaid (VOR, NDB)
Fix

Horizontal Profiles

Position Reports

Time Latitude Longitude Heading Altitude Ground
Speed
10-Sep-20 15:55 39.830959 -104.675505 0 5400ft 0kts
10-Sep-20 15:56 39.830959 -104.675505 0 5400ft 0kts
10-Sep-20 15:57 39.830959 -104.675505 0 5400ft 0kts
10-Sep-20 15:59 39.830959 -104.675505 0 5400ft 0kts
10-Sep-20 16:00 39.830959 -104.675505 0 5400ft 0kts
10-Sep-20 16:01 39.830959 -104.675505 0 5400ft 0kts
10-Sep-20 16:02 39.830959 -104.675505 0 5400ft 0kts
10-Sep-20 16:03 39.830959 -104.675505 0 5400ft 0kts
10-Sep-20 16:04 39.830959 -104.675505 0 5400ft 0kts
10-Sep-20 16:05 39.830959 -104.675505 0 5400ft 0kts
10-Sep-20 16:06 39.830959 -104.675505 0 5400ft 0kts
10-Sep-20 16:07 39.830959 -104.675505 0 5400ft 0kts
10-Sep-20 16:08 39.830959 -104.675505 0 5400ft 0kts
10-Sep-20 16:09 39.830959 -104.675505 0 5400ft 0kts
10-Sep-20 16:10 39.830959 -104.675505 0 5400ft 0kts
10-Sep-20 16:11 39.830959 -104.675505 0 5400ft 0kts
10-Sep-20 16:12 39.830959 -104.675505 0 5400ft 0kts
10-Sep-20 16:13 39.830959 -104.675505 0 5400ft 0kts
10-Sep-20 16:14 39.830959 -104.675505 0 5400ft 0kts
10-Sep-20 16:15 39.830959 -104.675505 0 5400ft 0kts
10-Sep-20 16:15 39.830959 -104.675505 0 5400ft 0kts
10-Sep-20 16:16 39.830959 -104.675505 0 5400ft 0kts
10-Sep-20 16:18 39.830959 -104.675505 0 5400ft 0kts
10-Sep-20 16:19 39.830959 -104.675505 0 5400ft 0kts
10-Sep-20 16:19 39.830959 -104.675505 0 5400ft 0kts
10-Sep-20 16:20 39.830959 -104.675505 0 5400ft 0kts
10-Sep-20 16:22 39.830959 -104.675505 0 5400ft 0kts
10-Sep-20 16:22 39.830865 -104.675505 359 5400ft 2kts
10-Sep-20 16:23 39.830276 -104.675686 45 5400ft 2kts
10-Sep-20 16:24 39.830116 -104.676214 90 5400ft 0kts
10-Sep-20 16:25 39.830116 -104.676214 90 5400ft 0kts
10-Sep-20 16:26 39.830116 -104.676214 90 5400ft 0kts
10-Sep-20 16:27 39.830116 -104.676214 90 5400ft 0kts
10-Sep-20 16:28 39.830116 -104.676214 90 5400ft 0kts
10-Sep-20 16:29 39.830112 -104.675809 90 5400ft 4kts
10-Sep-20 16:30 39.830081 -104.673195 99 5400ft 9kts
10-Sep-20 16:31 39.829359 -104.668697 90 5415ft 11kts
10-Sep-20 16:32 39.829333 -104.664157 89 5432ft 14kts
10-Sep-20 16:33 39.832045 -104.662622 1 5432ft 16kts
10-Sep-20 16:34 39.838456 -104.662556 0 5424ft 30kts
10-Sep-20 16:35 39.847071 -104.662461 0 5401ft 27kts
10-Sep-20 16:36 39.854106 -104.662370 0 5395ft 22kts
10-Sep-20 16:37 39.859410 -104.662314 359 5391ft 8kts
10-Sep-20 16:38 39.861026 -104.661807 83 5390ft 0kts
10-Sep-20 16:39 39.861060 -104.661122 88 5390ft 8kts
10-Sep-20 16:40 39.860437 -104.660164 180 5390ft 20kts
10-Sep-20 16:41 39.820484 -104.660720 179 5669ft 236kts
10-Sep-20 16:42 39.749900 -104.662234 179 7737ft 271kts
10-Sep-20 16:43 39.671267 -104.662355 179 11307ft 291kts
10-Sep-20 16:44 39.579561 -104.680546 191 13122ft 366kts
10-Sep-20 16:45 39.475039 -104.712721 194 16487ft 387kts
10-Sep-20 16:46 39.367654 -104.751699 194 19669ft 400kts
10-Sep-20 16:47 39.257610 -104.791227 194 22259ft 410kts
10-Sep-20 16:48 39.144709 -104.830950 193 24080ft 416kts
10-Sep-20 16:49 39.032236 -104.872463 195 25108ft 419kts
10-Sep-20 16:50 38.920411 -104.916183 196 25907ft 417kts
10-Sep-20 16:51 38.808744 -104.959668 196 26734ft 411kts
10-Sep-20 16:52 38.697383 -105.002817 196 27578ft 410kts
10-Sep-20 16:53 38.585902 -105.045675 196 28412ft 412kts
10-Sep-20 16:54 38.473780 -105.088683 197 29451ft 410kts
10-Sep-20 16:55 38.363898 -105.130769 197 31247ft 402kts
10-Sep-20 16:56 38.256905 -105.171698 198 32382ft 393kts
10-Sep-20 16:57 38.151898 -105.211782 198 32389ft 392kts
10-Sep-20 16:58 38.047308 -105.251601 198 32380ft 390kts
10-Sep-20 16:59 37.943191 -105.291055 198 32381ft 387kts
10-Sep-20 17:00 37.844608 -105.345098 207 32407ft 385kts
10-Sep-20 17:01 37.749231 -105.407910 208 32421ft 383kts
10-Sep-20 17:02 37.653482 -105.471282 208 32422ft 384kts
10-Sep-20 17:03 37.557989 -105.534507 208 32413ft 384kts
10-Sep-20 17:04 37.462511 -105.597622 208 32414ft 384kts
10-Sep-20 17:05 37.366916 -105.660714 207 32418ft 385kts
10-Sep-20 17:06 37.272591 -105.722514 208 32418ft 384kts
10-Sep-20 17:07 37.177032 -105.785098 208 32407ft 384kts
10-Sep-20 17:08 37.081821 -105.847397 208 32405ft 384kts
10-Sep-20 17:09 36.984896 -105.910640 208 32410ft 383kts
10-Sep-20 17:10 36.889043 -105.973017 209 32428ft 383kts
10-Sep-20 17:11 36.793063 -106.035303 209 32437ft 385kts
10-Sep-20 17:12 36.696584 -106.097722 209 32116ft 384kts
10-Sep-20 17:13 36.595459 -106.149584 202 32069ft 386kts
10-Sep-20 17:14 36.492643 -106.194422 203 31302ft 386kts
10-Sep-20 17:15 36.388471 -106.240388 203 28830ft 398kts
10-Sep-20 17:16 36.286317 -106.285216 203 26810ft 377kts
10-Sep-20 17:17 36.183252 -106.330441 202 24815ft 367kts
10-Sep-20 17:18 36.087855 -106.372089 202 23039ft 376kts
10-Sep-20 17:19 35.989544 -106.414380 202 21333ft 355kts
10-Sep-20 17:20 35.899815 -106.452806 202 20607ft 315kts
10-Sep-20 17:21 35.816716 -106.486734 201 19258ft 312kts
10-Sep-20 17:22 35.735618 -106.519756 201 17861ft 301kts
10-Sep-20 17:23 35.657001 -106.551747 201 16521ft 291kts
10-Sep-20 17:24 35.580853 -106.584091 205 15221ft 280kts
10-Sep-20 17:25 35.508888 -106.622774 205 14196ft 270kts
10-Sep-20 17:26 35.438260 -106.660844 205 13430ft 271kts
10-Sep-20 17:27 35.369035 -106.698036 204 12194ft 264kts
10-Sep-20 17:28 35.302218 -106.733923 203 11192ft 263kts
10-Sep-20 17:29 35.233826 -106.774353 206 10868ft 268kts
10-Sep-20 17:30 35.171625 -106.812583 205 9583ft 240kts
10-Sep-20 17:31 35.107743 -106.829497 178 9083ft 244kts
10-Sep-20 17:32 35.040708 -106.829325 178 9004ft 235kts
10-Sep-20 17:33 34.973988 -106.825115 170 8421ft 232kts
10-Sep-20 17:34 34.921286 -106.784672 113 8276ft 228kts
10-Sep-20 17:35 34.945021 -106.723395 41 7656ft 196kts
10-Sep-20 17:36 34.980831 -106.680450 47 6397ft 165kts
10-Sep-20 17:37 35.015225 -106.639064 44 5569ft 177kts
10-Sep-20 17:38 35.040657 -106.608386 44 5322ft 38kts
10-Sep-20 17:39 35.042425 -106.609751 270 5321ft 7kts
10-Sep-20 17:40 35.042376 -106.613396 248 5321ft 17kts
10-Sep-20 17:41 35.037581 -106.614352 207 5321ft 16kts
10-Sep-20 17:42 35.033326 -106.619347 224 5321ft 26kts
10-Sep-20 17:43 35.030561 -106.623818 235 5321ft 7kts
10-Sep-20 17:44 35.030713 -106.624707 313 5321ft 0kts

Navigation Log

Ident Type
Flight plan parsing failed, navigation log unavailable